sensor_id;sensor_type;location;lat;lon;timestamp;P1;durP1;ratioP1;P2;durP2;ratioP2
43114;SDS011;28727;50.068;14.452;2022-09-01T00:00:24;68.50;;;65.33;;
43114;SDS011;28727;50.068;14.452;2022-09-01T00:02:59;64.67;;;61.57;;
43114;SDS011;28727;50.068;14.452;2022-09-01T00:05:31;69.90;;;66.63;;
43114;SDS011;28727;50.068;14.452;2022-09-01T00:08:03;68.80;;;65.60;;
43114;SDS011;28727;50.068;14.452;2022-09-01T00:10:35;66.30;;;63.10;;
43114;SDS011;28727;50.068;14.452;2022-09-01T00:13:07;67.67;;;64.47;;
43114;SDS011;28727;50.068;14.452;2022-09-01T00:15:39;63.77;;;60.73;;
43114;SDS011;28727;50.068;14.452;2022-09-01T00:18:11;67.63;;;64.53;;
43114;SDS011;28727;50.068;14.452;2022-09-01T00:20:43;65.40;;;62.30;;
43114;SDS011;28727;50.068;14.452;2022-09-01T00:23:15;65.83;;;62.63;;
43114;SDS011;28727;50.068;14.452;2022-09-01T00:25:47;65.37;;;62.37;;
43114;SDS011;28727;50.068;14.452;2022-09-01T00:28:18;67.33;;;64.23;;
43114;SDS011;28727;50.068;14.452;2022-09-01T00:30:50;69.97;;;66.70;;
43114;SDS011;28727;50.068;14.452;2022-09-01T00:33:25;66.33;;;63.23;;
43114;SDS011;28727;50.068;14.452;2022-09-01T00:35:57;68.63;;;65.47;;
43114;SDS011;28727;50.068;14.452;2022-09-01T00:38:30;64.40;;;61.50;;
43114;SDS011;28727;50.068;14.452;2022-09-01T00:41:03;66.87;;;63.67;;
43114;SDS011;28727;50.068;14.452;2022-09-01T00:46:18;69.43;;;66.13;;
43114;SDS011;28727;50.068;14.452;2022-09-01T00:48:55;70.50;;;67.20;;
43114;SDS011;28727;50.068;14.452;2022-09-01T00:51:48;67.83;;;64.57;;
43114;SDS011;28727;50.068;14.452;2022-09-01T00:54:27;66.43;;;63.30;;
43114;SDS011;28727;50.068;14.452;2022-09-01T00:57:03;67.77;;;64.57;;
43114;SDS011;28727;50.068;14.452;2022-09-01T00:59:35;66.83;;;63.63;;
43114;SDS011;28727;50.068;14.452;2022-09-01T01:02:13;68.83;;;65.63;;
43114;SDS011;28727;50.068;14.452;2022-09-01T01:04:46;69.57;;;66.37;;
43114;SDS011;28727;50.068;14.452;2022-09-01T01:07:18;65.70;;;62.63;;
43114;SDS011;28727;50.068;14.452;2022-09-01T01:09:53;66.07;;;62.93;;
43114;SDS011;28727;50.068;14.452;2022-09-01T01:12:25;63.77;;;60.73;;
43114;SDS011;28727;50.068;14.452;2022-09-01T01:14:58;63.00;;;60.07;;
43114;SDS011;28727;50.068;14.452;2022-09-01T01:17:30;66.33;;;63.23;;
43114;SDS011;28727;50.068;14.452;2022-09-01T01:20:02;63.97;;;61.00;;
43114;SDS011;28727;50.068;14.452;2022-09-01T01:23:03;65.97;;;62.87;;
43114;SDS011;28727;50.068;14.452;2022-09-01T01:26:02;67.75;;;64.63;;
43114;SDS011;28727;50.068;14.452;2022-09-01T01:28:37;65.57;;;62.47;;
43114;SDS011;28727;50.068;14.452;2022-09-01T01:31:12;67.03;;;63.83;;
43114;SDS011;28727;50.068;14.452;2022-09-01T01:33:47;69.40;;;66.20;;
43114;SDS011;28727;50.068;14.452;2022-09-01T01:36:26;66.90;;;63.80;;
43114;SDS011;28727;50.068;14.452;2022-09-01T01:39:06;65.90;;;62.90;;
43114;SDS011;28727;50.068;14.452;2022-09-01T01:41:40;64.03;;;61.13;;
43114;SDS011;28727;50.068;14.452;2022-09-01T01:44:16;64.40;;;61.40;;
43114;SDS011;28727;50.068;14.452;2022-09-01T01:46:51;65.43;;;62.30;;
43114;SDS011;28727;50.068;14.452;2022-09-01T01:49:24;68.37;;;64.97;;
43114;SDS011;28727;50.068;14.452;2022-09-01T01:51:59;64.93;;;61.90;;
43114;SDS011;28727;50.068;14.452;2022-09-01T01:54:34;70.57;;;67.20;;
43114;SDS011;28727;50.068;14.452;2022-09-01T01:57:06;63.87;;;60.93;;
43114;SDS011;28727;50.068;14.452;2022-09-01T01:59:38;63.83;;;60.93;;
43114;SDS011;28727;50.068;14.452;2022-09-01T02:02:11;70.60;;;67.30;;
43114;SDS011;28727;50.068;14.452;2022-09-01T02:04:43;63.37;;;60.37;;
43114;SDS011;28727;50.068;14.452;2022-09-01T02:07:16;64.63;;;61.63;;
43114;SDS011;28727;50.068;14.452;2022-09-01T02:09:48;66.90;;;63.80;;
43114;SDS011;28727;50.068;14.452;2022-09-01T02:12:20;63.10;;;60.10;;
43114;SDS011;28727;50.068;14.452;2022-09-01T02:14:55;67.47;;;64.27;;
43114;SDS011;28727;50.068;14.452;2022-09-01T02:17:30;65.70;;;62.70;;
43114;SDS011;28727;50.068;14.452;2022-09-01T02:20:02;70.30;;;67.07;;
43114;SDS011;28727;50.068;14.452;2022-09-01T02:22:34;72.00;;;68.60;;
43114;SDS011;28727;50.068;14.452;2022-09-01T02:25:08;64.13;;;61.20;;
43114;SDS011;28727;50.068;14.452;2022-09-01T02:27:40;64.77;;;61.70;;
43114;SDS011;28727;50.068;14.452;2022-09-01T02:30:13;64.00;;;61.00;;
43114;SDS011;28727;50.068;14.452;2022-09-01T02:32:45;66.53;;;63.47;;
43114;SDS011;28727;50.068;14.452;2022-09-01T02:35:17;67.27;;;64.10;;
43114;SDS011;28727;50.068;14.452;2022-09-01T02:37:49;66.30;;;63.20;;
43114;SDS011;28727;50.068;14.452;2022-09-01T02:40:21;66.03;;;62.93;;
43114;SDS011;28727;50.068;14.452;2022-09-01T02:42:53;66.63;;;63.50;;
43114;SDS011;28727;50.068;14.452;2022-09-01T02:45:26;66.77;;;63.63;;
43114;SDS011;28727;50.068;14.452;2022-09-01T02:48:00;70.37;;;67.10;;
43114;SDS011;28727;50.068;14.452;2022-09-01T02:50:32;63.47;;;60.53;;
43114;SDS011;28727;50.068;14.452;2022-09-01T02:53:04;65.97;;;62.87;;
43114;SDS011;28727;50.068;14.452;2022-09-01T02:55:42;67.33;;;64.13;;
43114;SDS011;28727;50.068;14.452;2022-09-01T02:58:14;63.80;;;60.77;;
43114;SDS011;28727;50.068;14.452;2022-09-01T03:00:56;71.93;;;68.53;;
43114;SDS011;28727;50.068;14.452;2022-09-01T03:03:28;62.83;;;59.93;;
43114;SDS011;28727;50.068;14.452;2022-09-01T03:05:59;60.67;;;57.80;;
43114;SDS011;28727;50.068;14.452;2022-09-01T03:08:31;68.17;;;64.97;;
43114;SDS011;28727;50.068;14.452;2022-09-01T03:11:09;63.63;;;60.67;;
43114;SDS011;28727;50.068;14.452;2022-09-01T03:13:44;64.63;;;61.63;;
43114;SDS011;28727;50.068;14.452;2022-09-01T03:16:16;65.60;;;62.50;;
43114;SDS011;28727;50.068;14.452;2022-09-01T03:18:48;62.80;;;59.90;;
43114;SDS011;28727;50.068;14.452;2022-09-01T03:21:21;68.30;;;65.13;;
43114;SDS011;28727;50.068;14.452;2022-09-01T03:23:53;63.47;;;60.47;;
43114;SDS011;28727;50.068;14.452;2022-09-01T03:26:26;66.23;;;63.07;;
43114;SDS011;28727;50.068;14.452;2022-09-01T03:28:58;64.60;;;61.60;;
43114;SDS011;28727;50.068;14.452;2022-09-01T03:31:30;64.43;;;61.47;;
43114;SDS011;28727;50.068;14.452;2022-09-01T03:34:04;64.10;;;60.93;;
43114;SDS011;28727;50.068;14.452;2022-09-01T03:36:42;69.40;;;66.20;;
43114;SDS011;28727;50.068;14.452;2022-09-01T03:39:29;70.27;;;66.87;;
43114;SDS011;28727;50.068;14.452;2022-09-01T03:42:01;66.37;;;63.27;;
43114;SDS011;28727;50.068;14.452;2022-09-01T03:44:33;67.90;;;64.70;;
43114;SDS011;28727;50.068;14.452;2022-09-01T03:47:06;70.93;;;67.53;;
43114;SDS011;28727;50.068;14.452;2022-09-01T03:49:41;69.40;;;66.00;;
43114;SDS011;28727;50.068;14.452;2022-09-01T03:52:14;68.47;;;65.20;;
43114;SDS011;28727;50.068;14.452;2022-09-01T03:54:47;71.20;;;67.82;;
43114;SDS011;28727;50.068;14.452;2022-09-01T03:57:24;77.30;;;73.70;;
43114;SDS011;28727;50.068;14.452;2022-09-01T04:00:03;72.50;;;69.20;;
43114;SDS011;28727;50.068;14.452;2022-09-01T04:02:44;71.97;;;68.67;;
43114;SDS011;28727;50.068;14.452;2022-09-01T04:05:28;73.77;;;70.30;;
43114;SDS011;28727;50.068;14.452;2022-09-01T04:08:05;72.23;;;68.87;;
43114;SDS011;28727;50.068;14.452;2022-09-01T04:10:43;75.23;;;71.73;;
43114;SDS011;28727;50.068;14.452;2022-09-01T04:13:27;75.33;;;71.73;;
43114;SDS011;28727;50.068;14.452;2022-09-01T04:16:00;77.70;;;73.83;;
43114;SDS011;28727;50.068;14.452;2022-09-01T04:18:33;77.13;;;73.33;;
43114;SDS011;28727;50.068;14.452;2022-09-01T04:21:06;73.83;;;70.13;;
43114;SDS011;28727;50.068;14.452;2022-09-01T04:23:38;79.57;;;75.43;;
43114;SDS011;28727;50.068;14.452;2022-09-01T04:26:12;79.47;;;75.63;;
43114;SDS011;28727;50.068;14.452;2022-09-01T04:28:50;73.63;;;69.97;;
43114;SDS011;28727;50.068;14.452;2022-09-01T04:31:24;75.77;;;72.10;;
43114;SDS011;28727;50.068;14.452;2022-09-01T04:33:56;77.57;;;73.73;;
43114;SDS011;28727;50.068;14.452;2022-09-01T04:36:28;76.53;;;72.73;;
43114;SDS011;28727;50.068;14.452;2022-09-01T04:39:04;77.70;;;74.03;;
43114;SDS011;28727;50.068;14.452;2022-09-01T04:41:43;71.53;;;68.23;;
43114;SDS011;28727;50.068;14.452;2022-09-01T04:44:20;74.33;;;70.57;;
43114;SDS011;28727;50.068;14.452;2022-09-01T04:46:53;75.07;;;71.33;;
43114;SDS011;28727;50.068;14.452;2022-09-01T04:49:25;76.17;;;72.37;;
43114;SDS011;28727;50.068;14.452;2022-09-01T04:51:57;78.93;;;75.03;;
43114;SDS011;28727;50.068;14.452;2022-09-01T04:54:29;73.83;;;70.23;;
43114;SDS011;28727;50.068;14.452;2022-09-01T04:57:07;77.30;;;73.57;;
43114;SDS011;28727;50.068;14.452;2022-09-01T04:59:40;73.60;;;70.00;;
43114;SDS011;28727;50.068;14.452;2022-09-01T05:02:12;77.47;;;73.80;;
43114;SDS011;28727;50.068;14.452;2022-09-01T05:04:44;74.80;;;71.23;;
43114;SDS011;28727;50.068;14.452;2022-09-01T05:07:16;72.20;;;68.80;;
43114;SDS011;28727;50.068;14.452;2022-09-01T05:09:48;76.60;;;73.00;;
43114;SDS011;28727;50.068;14.452;2022-09-01T05:12:40;76.27;;;72.77;;
43114;SDS011;28727;50.068;14.452;2022-09-01T05:15:12;74.73;;;71.23;;
43114;SDS011;28727;50.068;14.452;2022-09-01T05:17:45;75.27;;;71.57;;
43114;SDS011;28727;50.068;14.452;2022-09-01T05:20:18;74.30;;;70.80;;
43114;SDS011;28727;50.068;14.452;2022-09-01T05:22:51;71.70;;;68.20;;
43114;SDS011;28727;50.068;14.452;2022-09-01T05:25:27;76.37;;;72.73;;
43114;SDS011;28727;50.068;14.452;2022-09-01T05:27:59;79.03;;;75.33;;
43114;SDS011;28727;50.068;14.452;2022-09-01T05:30:32;72.63;;;69.07;;
43114;SDS011;28727;50.068;14.452;2022-09-01T05:33:07;78.20;;;74.33;;
43114;SDS011;28727;50.068;14.452;2022-09-01T05:35:57;79.07;;;75.13;;
43114;SDS011;28727;50.068;14.452;2022-09-01T05:38:32;73.47;;;70.00;;
43114;SDS011;28727;50.068;14.452;2022-09-01T05:41:04;71.00;;;67.60;;
43114;SDS011;28727;50.068;14.452;2022-09-01T05:43:42;72.53;;;69.20;;
43114;SDS011;28727;50.068;14.452;2022-09-01T05:46:20;74.73;;;71.20;;
43114;SDS011;28727;50.068;14.452;2022-09-01T05:48:54;73.87;;;70.37;;
43114;SDS011;28727;50.068;14.452;2022-09-01T05:51:27;74.90;;;71.30;;
43114;SDS011;28727;50.068;14.452;2022-09-01T05:54:16;73.10;;;69.60;;
43114;SDS011;28727;50.068;14.452;2022-09-01T05:56:52;78.13;;;74.43;;
43114;SDS011;28727;50.068;14.452;2022-09-01T05:59:38;79.43;;;75.63;;
43114;SDS011;28727;50.068;14.452;2022-09-01T06:02:16;76.97;;;73.30;;
43114;SDS011;28727;50.068;14.452;2022-09-01T06:04:51;77.87;;;74.07;;
43114;SDS011;28727;50.068;14.452;2022-09-01T06:07:32;75.87;;;72.23;;
43114;SDS011;28727;50.068;14.452;2022-09-01T06:10:05;76.43;;;72.63;;
43114;SDS011;28727;50.068;14.452;2022-09-01T06:12:38;80.20;;;76.00;;
43114;SDS011;28727;50.068;14.452;2022-09-01T06:15:11;75.27;;;71.53;;
43114;SDS011;28727;50.068;14.452;2022-09-01T06:17:49;77.43;;;73.63;;
43114;SDS011;28727;50.068;14.452;2022-09-01T06:20:21;74.87;;;71.27;;
43114;SDS011;28727;50.068;14.452;2022-09-01T06:22:53;74.50;;;70.80;;
43114;SDS011;28727;50.068;14.452;2022-09-01T06:25:25;74.60;;;70.90;;
43114;SDS011;28727;50.068;14.452;2022-09-01T06:28:01;78.87;;;75.03;;
43114;SDS011;28727;50.068;14.452;2022-09-01T06:30:35;78.90;;;74.95;;
43114;SDS011;28727;50.068;14.452;2022-09-01T06:33:12;79.57;;;75.63;;
43114;SDS011;28727;50.068;14.452;2022-09-01T06:35:50;79.63;;;75.40;;
43114;SDS011;28727;50.068;14.452;2022-09-01T06:38:24;73.83;;;70.23;;
43114;SDS011;28727;50.068;14.452;2022-09-01T06:41:01;78.07;;;74.20;;
43114;SDS011;28727;50.068;14.452;2022-09-01T06:43:34;78.83;;;75.03;;
43114;SDS011;28727;50.068;14.452;2022-09-01T06:46:07;77.30;;;73.40;;
43114;SDS011;28727;50.068;14.452;2022-09-01T06:48:40;75.60;;;71.80;;
43114;SDS011;28727;50.068;14.452;2022-09-01T06:51:18;78.77;;;74.77;;
43114;SDS011;28727;50.068;14.452;2022-09-01T06:53:58;76.57;;;72.53;;
43114;SDS011;28727;50.068;14.452;2022-09-01T06:56:35;75.53;;;71.83;;
43114;SDS011;28727;50.068;14.452;2022-09-01T06:59:15;77.37;;;73.57;;
43114;SDS011;28727;50.068;14.452;2022-09-01T07:01:51;75.93;;;72.23;;
43114;SDS011;28727;50.068;14.452;2022-09-01T07:04:43;78.53;;;74.63;;
43114;SDS011;28727;50.068;14.452;2022-09-01T07:07:15;76.30;;;72.57;;
43114;SDS011;28727;50.068;14.452;2022-09-01T07:10:46;78.83;;;74.90;;
43114;SDS011;28727;50.068;14.452;2022-09-01T07:13:40;76.70;;;73.00;;
43114;SDS011;28727;50.068;14.452;2022-09-01T07:16:34;76.77;;;72.97;;
43114;SDS011;28727;50.068;14.452;2022-09-01T07:19:24;80.07;;;76.00;;
43114;SDS011;28727;50.068;14.452;2022-09-01T07:22:16;79.10;;;75.20;;
43114;SDS011;28727;50.068;14.452;2022-09-01T07:25:08;79.67;;;75.77;;
43114;SDS011;28727;50.068;14.452;2022-09-01T07:28:13;76.73;;;72.93;;
43114;SDS011;28727;50.068;14.452;2022-09-01T07:30:49;82.27;;;77.93;;
43114;SDS011;28727;50.068;14.452;2022-09-01T07:33:26;82.60;;;78.40;;
43114;SDS011;28727;50.068;14.452;2022-09-01T07:36:20;78.15;;;74.30;;
43114;SDS011;28727;50.068;14.452;2022-09-01T07:38:56;80.67;;;76.70;;
43114;SDS011;28727;50.068;14.452;2022-09-01T07:42:03;79.13;;;75.30;;
43114;SDS011;28727;50.068;14.452;2022-09-01T07:45:20;80.43;;;76.43;;
43114;SDS011;28727;50.068;14.452;2022-09-01T07:48:05;79.73;;;75.73;;
43114;SDS011;28727;50.068;14.452;2022-09-01T07:50:48;80.87;;;76.90;;
43114;SDS011;28727;50.068;14.452;2022-09-01T07:53:42;82.63;;;78.50;;
43114;SDS011;28727;50.068;14.452;2022-09-01T07:56:18;83.90;;;79.73;;
43114;SDS011;28727;50.068;14.452;2022-09-01T07:58:53;86.83;;;82.57;;
43114;SDS011;28727;50.068;14.452;2022-09-01T08:01:26;81.63;;;77.63;;
43114;SDS011;28727;50.068;14.452;2022-09-01T08:03:59;83.53;;;79.47;;
43114;SDS011;28727;50.068;14.452;2022-09-01T08:06:33;91.17;;;86.23;;
43114;SDS011;28727;50.068;14.452;2022-09-01T08:09:10;86.70;;;82.40;;
43114;SDS011;28727;50.068;14.452;2022-09-01T08:12:03;92.93;;;88.43;;
43114;SDS011;28727;50.068;14.452;2022-09-01T08:14:42;90.23;;;85.97;;
43114;SDS011;28727;50.068;14.452;2022-09-01T08:17:15;93.27;;;88.73;;
43114;SDS011;28727;50.068;14.452;2022-09-01T08:20:07;93.30;;;88.73;;
43114;SDS011;28727;50.068;14.452;2022-09-01T08:23:04;95.33;;;90.83;;
43114;SDS011;28727;50.068;14.452;2022-09-01T08:25:40;95.73;;;91.17;;
43114;SDS011;28727;50.068;14.452;2022-09-01T08:28:14;99.03;;;94.30;;
43114;SDS011;28727;50.068;14.452;2022-09-01T08:30:56;97.93;;;93.23;;
43114;SDS011;28727;50.068;14.452;2022-09-01T08:33:30;102.00;;;97.15;;
43114;SDS011;28727;50.068;14.452;2022-09-01T08:36:06;100.70;;;95.67;;
43114;SDS011;28727;50.068;14.452;2022-09-01T08:41:17;101.13;;;96.40;;
43114;SDS011;28727;50.068;14.452;2022-09-01T08:47:09;99.07;;;94.47;;
43114;SDS011;28727;50.068;14.452;2022-09-01T08:49:46;104.97;;;98.73;;
43114;SDS011;28727;50.068;14.452;2022-09-01T08:52:23;101.93;;;97.17;;
43114;SDS011;28727;50.068;14.452;2022-09-01T08:55:15;104.80;;;99.87;;
43114;SDS011;28727;50.068;14.452;2022-09-01T08:57:55;100.83;;;96.03;;
43114;SDS011;28727;50.068;14.452;2022-09-01T09:00:32;95.57;;;91.10;;
43114;SDS011;28727;50.068;14.452;2022-09-01T09:03:20;101.75;;;96.80;;
43114;SDS011;28727;50.068;14.452;2022-09-01T09:09:06;96.63;;;92.07;;
43114;SDS011;28727;50.068;14.452;2022-09-01T09:17:29;103.37;;;98.50;;
43114;SDS011;28727;50.068;14.452;2022-09-01T09:20:06;108.43;;;103.27;;
43114;SDS011;28727;50.068;14.452;2022-09-01T09:22:40;110.90;;;105.65;;
43114;SDS011;28727;50.068;14.452;2022-09-01T09:25:15;108.75;;;103.68;;
43114;SDS011;28727;50.068;14.452;2022-09-01T09:27:50;113.93;;;108.43;;
43114;SDS011;28727;50.068;14.452;2022-09-01T09:30:30;114.23;;;108.87;;
43114;SDS011;28727;50.068;14.452;2022-09-01T09:33:05;117.57;;;111.80;;
43114;SDS011;28727;50.068;14.452;2022-09-01T09:39:11;111.60;;;106.43;;
43114;SDS011;28727;50.068;14.452;2022-09-01T09:42:00;115.03;;;109.67;;
43114;SDS011;28727;50.068;14.452;2022-09-01T09:44:39;108.70;;;103.70;;
43114;SDS011;28727;50.068;14.452;2022-09-01T09:52:51;107.97;;;102.97;;
43114;SDS011;28727;50.068;14.452;2022-09-01T09:55:28;101.93;;;97.25;;
43114;SDS011;28727;50.068;14.452;2022-09-01T09:58:00;103.57;;;98.47;;
43114;SDS011;28727;50.068;14.452;2022-09-01T10:00:41;103.00;;;98.13;;
43114;SDS011;28727;50.068;14.452;2022-09-01T10:03:40;105.73;;;100.63;;
43114;SDS011;28727;50.068;14.452;2022-09-01T10:06:29;110.83;;;105.57;;
43114;SDS011;28727;50.068;14.452;2022-09-01T10:09:14;103.43;;;98.80;;
43114;SDS011;28727;50.068;14.452;2022-09-01T10:11:58;105.03;;;100.23;;
43114;SDS011;28727;50.068;14.452;2022-09-01T10:14:40;102.13;;;97.43;;
43114;SDS011;28727;50.068;14.452;2022-09-01T10:17:57;107.97;;;102.73;;
43114;SDS011;28727;50.068;14.452;2022-09-01T10:20:44;106.60;;;101.67;;
43114;SDS011;28727;50.068;14.452;2022-09-01T10:23:23;101.73;;;96.97;;
43114;SDS011;28727;50.068;14.452;2022-09-01T10:26:23;103.43;;;98.60;;
43114;SDS011;28727;50.068;14.452;2022-09-01T10:29:00;105.40;;;100.30;;
43114;SDS011;28727;50.068;14.452;2022-09-01T10:31:42;104.77;;;99.97;;
43114;SDS011;28727;50.068;14.452;2022-09-01T10:34:15;101.40;;;96.70;;
43114;SDS011;28727;50.068;14.452;2022-09-01T10:36:50;103.13;;;98.40;;
43114;SDS011;28727;50.068;14.452;2022-09-01T10:39:27;107.40;;;102.33;;
43114;SDS011;28727;50.068;14.452;2022-09-01T10:42:01;107.27;;;102.13;;
43114;SDS011;28727;50.068;14.452;2022-09-01T10:44:57;104.23;;;99.43;;
43114;SDS011;28727;50.068;14.452;2022-09-01T10:47:34;100.67;;;96.03;;
43114;SDS011;28727;50.068;14.452;2022-09-01T10:50:25;105.13;;;100.13;;
43114;SDS011;28727;50.068;14.452;2022-09-01T10:53:06;102.77;;;98.00;;
43114;SDS011;28727;50.068;14.452;2022-09-01T10:55:44;107.90;;;102.13;;
43114;SDS011;28727;50.068;14.452;2022-09-01T11:10:13;90.82;;;86.60;;
43114;SDS011;28727;50.068;14.452;2022-09-01T11:13:10;94.47;;;89.97;;
43114;SDS011;28727;50.068;14.452;2022-09-01T11:16:24;93.50;;;89.03;;
43114;SDS011;28727;50.068;14.452;2022-09-01T11:22:10;92.63;;;88.23;;
43114;SDS011;28727;50.068;14.452;2022-09-01T11:24:49;91.63;;;87.23;;
43114;SDS011;28727;50.068;14.452;2022-09-01T11:30:21;93.57;;;89.17;;
43114;SDS011;28727;50.068;14.452;2022-09-01T11:35:43;91.50;;;87.20;;
43114;SDS011;28727;50.068;14.452;2022-09-01T11:38:28;93.97;;;89.47;;
43114;SDS011;28727;50.068;14.452;2022-09-01T11:41:08;93.87;;;89.37;;
43114;SDS011;28727;50.068;14.452;2022-09-01T11:43:54;93.97;;;89.47;;
43114;SDS011;28727;50.068;14.452;2022-09-01T11:46:30;91.27;;;87.07;;
43114;SDS011;28727;50.068;14.452;2022-09-01T11:49:17;91.70;;;87.37;;
43114;SDS011;28727;50.068;14.452;2022-09-01T11:51:58;96.03;;;91.40;;
43114;SDS011;28727;50.068;14.452;2022-09-01T11:54:40;85.57;;;81.50;;
43114;SDS011;28727;50.068;14.452;2022-09-01T12:00:10;94.43;;;89.83;;
43114;SDS011;28727;50.068;14.452;2022-09-01T12:02:46;90.53;;;86.23;;
43114;SDS011;28727;50.068;14.452;2022-09-01T12:05:27;87.47;;;83.37;;
43114;SDS011;28727;50.068;14.452;2022-09-01T12:08:03;91.57;;;87.23;;
43114;SDS011;28727;50.068;14.452;2022-09-01T12:10:44;94.23;;;89.73;;
43114;SDS011;28727;50.068;14.452;2022-09-01T12:13:18;95.50;;;90.53;;
43114;SDS011;28727;50.068;14.452;2022-09-01T12:15:53;88.97;;;84.77;;
43114;SDS011;28727;50.068;14.452;2022-09-01T12:18:48;92.22;;;87.72;;
43114;SDS011;28727;50.068;14.452;2022-09-01T12:21:26;91.90;;;87.43;;
43114;SDS011;28727;50.068;14.452;2022-09-01T12:24:18;101.30;;;96.17;;
43114;SDS011;28727;50.068;14.452;2022-09-01T12:26:53;93.93;;;89.35;;
43114;SDS011;28727;50.068;14.452;2022-09-01T12:29:27;94.03;;;89.47;;
43114;SDS011;28727;50.068;14.452;2022-09-01T12:32:02;89.40;;;85.00;;
43114;SDS011;28727;50.068;14.452;2022-09-01T12:34:45;91.23;;;86.73;;
43114;SDS011;28727;50.068;14.452;2022-09-01T12:37:29;88.13;;;83.90;;
43114;SDS011;28727;50.068;14.452;2022-09-01T12:40:01;90.50;;;86.27;;
43114;SDS011;28727;50.068;14.452;2022-09-01T12:42:33;89.53;;;85.20;;
43114;SDS011;28727;50.068;14.452;2022-09-01T12:45:15;89.03;;;84.83;;
43114;SDS011;28727;50.068;14.452;2022-09-01T12:48:22;91.17;;;86.87;;
43114;SDS011;28727;50.068;14.452;2022-09-01T12:51:02;84.20;;;80.23;;
43114;SDS011;28727;50.068;14.452;2022-09-01T12:54:01;85.33;;;81.47;;
43114;SDS011;28727;50.068;14.452;2022-09-01T12:56:35;86.28;;;82.28;;
43114;SDS011;28727;50.068;14.452;2022-09-01T12:59:22;85.03;;;81.13;;
43114;SDS011;28727;50.068;14.452;2022-09-01T13:02:27;83.90;;;80.07;;
43114;SDS011;28727;50.068;14.452;2022-09-01T13:10:51;82.13;;;78.30;;
43114;SDS011;28727;50.068;14.452;2022-09-01T13:13:25;88.00;;;83.43;;
43114;SDS011;28727;50.068;14.452;2022-09-01T13:15:58;83.93;;;80.00;;
43114;SDS011;28727;50.068;14.452;2022-09-01T13:18:33;84.87;;;80.97;;
43114;SDS011;28727;50.068;14.452;2022-09-01T13:21:24;89.00;;;84.80;;
43114;SDS011;28727;50.068;14.452;2022-09-01T13:24:01;80.87;;;77.10;;
43114;SDS011;28727;50.068;14.452;2022-09-01T13:26:35;78.87;;;75.23;;
43114;SDS011;28727;50.068;14.452;2022-09-01T13:29:07;86.20;;;82.20;;
43114;SDS011;28727;50.068;14.452;2022-09-01T13:31:39;83.93;;;79.93;;
43114;SDS011;28727;50.068;14.452;2022-09-01T13:34:31;86.73;;;82.73;;
43114;SDS011;28727;50.068;14.452;2022-09-01T13:37:03;83.30;;;79.33;;
43114;SDS011;28727;50.068;14.452;2022-09-01T13:39:34;84.63;;;80.67;;
43114;SDS011;28727;50.068;14.452;2022-09-01T13:42:06;85.83;;;81.83;;
43114;SDS011;28727;50.068;14.452;2022-09-01T13:44:38;81.53;;;77.70;;
43114;SDS011;28727;50.068;14.452;2022-09-01T13:47:10;84.90;;;80.97;;
43114;SDS011;28727;50.068;14.452;2022-09-01T13:50:02;84.97;;;81.13;;
43114;SDS011;28727;50.068;14.452;2022-09-01T13:52:41;85.60;;;81.57;;
43114;SDS011;28727;50.068;14.452;2022-09-01T13:55:29;81.80;;;78.10;;
43114;SDS011;28727;50.068;14.452;2022-09-01T13:58:03;83.90;;;80.07;;
43114;SDS011;28727;50.068;14.452;2022-09-01T14:00:36;85.23;;;81.10;;
43114;SDS011;28727;50.068;14.452;2022-09-01T14:03:17;85.20;;;81.00;;
43114;SDS011;28727;50.068;14.452;2022-09-01T14:05:51;86.27;;;82.27;;
43114;SDS011;28727;50.068;14.452;2022-09-01T14:08:22;84.50;;;80.63;;
43114;SDS011;28727;50.068;14.452;2022-09-01T14:10:54;83.43;;;79.57;;
43114;SDS011;28727;50.068;14.452;2022-09-01T14:13:26;83.90;;;80.00;;
43114;SDS011;28727;50.068;14.452;2022-09-01T14:15:58;82.80;;;79.03;;
43114;SDS011;28727;50.068;14.452;2022-09-01T14:18:31;86.67;;;82.57;;
43114;SDS011;28727;50.068;14.452;2022-09-01T14:21:14;80.43;;;76.63;;
43114;SDS011;28727;50.068;14.452;2022-09-01T14:23:46;85.70;;;81.63;;
43114;SDS011;28727;50.068;14.452;2022-09-01T14:26:17;83.47;;;79.67;;
43114;SDS011;28727;50.068;14.452;2022-09-01T14:28:51;86.90;;;82.80;;
43114;SDS011;28727;50.068;14.452;2022-09-01T14:31:23;80.83;;;77.07;;
43114;SDS011;28727;50.068;14.452;2022-09-01T14:33:55;82.37;;;78.60;;
43114;SDS011;28727;50.068;14.452;2022-09-01T14:36:26;83.60;;;79.70;;
43114;SDS011;28727;50.068;14.452;2022-09-01T14:38:58;85.03;;;81.10;;
43114;SDS011;28727;50.068;14.452;2022-09-01T14:41:29;85.90;;;81.80;;
43114;SDS011;28727;50.068;14.452;2022-09-01T14:44:02;85.13;;;81.07;;
43114;SDS011;28727;50.068;14.452;2022-09-01T14:46:34;86.63;;;82.50;;
43114;SDS011;28727;50.068;14.452;2022-09-01T14:49:07;85.30;;;81.40;;
43114;SDS011;28727;50.068;14.452;2022-09-01T14:51:39;84.07;;;80.13;;
43114;SDS011;28727;50.068;14.452;2022-09-01T14:54:31;85.90;;;81.73;;
43114;SDS011;28727;50.068;14.452;2022-09-01T14:57:04;87.63;;;83.17;;
43114;SDS011;28727;50.068;14.452;2022-09-01T14:59:57;85.23;;;81.17;;
43114;SDS011;28727;50.068;14.452;2022-09-01T15:02:29;86.17;;;82.10;;
43114;SDS011;28727;50.068;14.452;2022-09-01T15:05:02;88.87;;;84.67;;
43114;SDS011;28727;50.068;14.452;2022-09-01T15:07:34;82.23;;;78.23;;
43114;SDS011;28727;50.068;14.452;2022-09-01T15:10:08;86.37;;;82.30;;
43114;SDS011;28727;50.068;14.452;2022-09-01T15:12:56;80.23;;;76.50;;
43114;SDS011;28727;50.068;14.452;2022-09-01T15:15:29;82.30;;;78.50;;
43114;SDS011;28727;50.068;14.452;2022-09-01T15:18:01;82.50;;;78.67;;
43114;SDS011;28727;50.068;14.452;2022-09-01T15:20:32;87.40;;;83.17;;
43114;SDS011;28727;50.068;14.452;2022-09-01T15:23:19;84.63;;;80.67;;
43114;SDS011;28727;50.068;14.452;2022-09-01T15:25:54;85.50;;;81.33;;
43114;SDS011;28727;50.068;14.452;2022-09-01T15:28:27;85.93;;;81.80;;
43114;SDS011;28727;50.068;14.452;2022-09-01T15:31:00;81.20;;;77.40;;
43114;SDS011;28727;50.068;14.452;2022-09-01T15:33:34;86.70;;;82.63;;
43114;SDS011;28727;50.068;14.452;2022-09-01T15:36:12;84.50;;;80.43;;
43114;SDS011;28727;50.068;14.452;2022-09-01T15:38:46;85.50;;;81.47;;
43114;SDS011;28727;50.068;14.452;2022-09-01T15:41:18;83.77;;;79.87;;
43114;SDS011;28727;50.068;14.452;2022-09-01T15:43:52;84.10;;;80.17;;
43114;SDS011;28727;50.068;14.452;2022-09-01T15:46:25;83.30;;;79.50;;
43114;SDS011;28727;50.068;14.452;2022-09-01T15:49:03;86.83;;;82.73;;
43114;SDS011;28727;50.068;14.452;2022-09-01T15:54:18;87.83;;;83.60;;
43114;SDS011;28727;50.068;14.452;2022-09-01T15:56:50;85.17;;;80.97;;
43114;SDS011;28727;50.068;14.452;2022-09-01T15:59:22;82.60;;;78.70;;
43114;SDS011;28727;50.068;14.452;2022-09-01T16:01:53;81.53;;;77.70;;
43114;SDS011;28727;50.068;14.452;2022-09-01T16:04:25;84.90;;;80.80;;